sensor_id;sensor_type;location;lat;lon;timestamp;pressure;altitude;pressure_sealevel;temperature;humidity
40918;BME280;26644;50.248;19.032;2023-05-22T00:02:33;98321.56;;;14.76;54.07
40918;BME280;26644;50.248;19.032;2023-05-22T00:05:45;98333.13;;;14.78;53.95
40918;BME280;26644;50.248;19.032;2023-05-22T00:08:51;98332.59;;;14.76;53.81
40918;BME280;26644;50.248;19.032;2023-05-22T00:11:55;98330.47;;;14.73;53.49
40918;BME280;26644;50.248;19.032;2023-05-22T00:15:00;98317.28;;;14.70;53.40
40918;BME280;26644;50.248;19.032;2023-05-22T00:18:05;98314.44;;;14.61;53.50
40918;BME280;26644;50.248;19.032;2023-05-22T00:21:14;98305.94;;;14.58;53.42
40918;BME280;26644;50.248;19.032;2023-05-22T00:24:18;98306.13;;;14.61;53.32
40918;BME280;26644;50.248;19.032;2023-05-22T00:27:23;98314.22;;;14.58;53.07
40918;BME280;26644;50.248;19.032;2023-05-22T00:30:28;98304.72;;;14.50;53.13
40918;BME280;26644;50.248;19.032;2023-05-22T00:33:34;98307.59;;;14.45;53.12
40918;BME280;26644;50.248;19.032;2023-05-22T00:36:41;98303.19;;;14.44;53.14
40918;BME280;26644;50.248;19.032;2023-05-22T00:39:47;98306.59;;;14.41;52.93
40918;BME280;26644;50.248;19.032;2023-05-22T00:42:52;98302.47;;;14.38;52.62
40918;BME280;26644;50.248;19.032;2023-05-22T00:45:57;98298.97;;;14.33;52.51
40918;BME280;26644;50.248;19.032;2023-05-22T00:49:02;98307.38;;;14.41;52.50
40918;BME280;26644;50.248;19.032;2023-05-22T00:52:25;98303.19;;;14.44;52.34
40918;BME280;26644;50.248;19.032;2023-05-22T00:55:45;98299.38;;;14.40;52.07
40918;BME280;26644;50.248;19.032;2023-05-22T00:59:06;98297.34;;;14.32;52.14
40918;BME280;26644;50.248;19.032;2023-05-22T01:02:28;98295.50;;;14.27;52.30
40918;BME280;26644;50.248;19.032;2023-05-22T01:05:49;98300.81;;;14.23;52.32
40918;BME280;26644;50.248;19.032;2023-05-22T01:09:11;98297.97;;;14.15;52.69
40918;BME280;26644;50.248;19.032;2023-05-22T01:12:40;98296.41;;;14.08;52.81
40918;BME280;26644;50.248;19.032;2023-05-22T01:16:11;98288.84;;;14.00;52.99
40918;BME280;26644;50.248;19.032;2023-05-22T01:19:53;98290.06;;;13.94;53.43
40918;BME280;26644;50.248;19.032;2023-05-22T01:27:58;98286.28;;;13.90;53.41
40918;BME280;26644;50.248;19.032;2023-05-22T01:31:18;98288.72;;;13.91;53.60
40918;BME280;26644;50.248;19.032;2023-05-22T01:34:30;98287.09;;;13.90;53.73
40918;BME280;26644;50.248;19.032;2023-05-22T01:37:41;98293.00;;;13.84;53.55
40918;BME280;26644;50.248;19.032;2023-05-22T01:40:48;98292.81;;;13.80;53.91
40918;BME280;26644;50.248;19.032;2023-05-22T01:43:55;98281.66;;;13.71;54.14
40918;BME280;26644;50.248;19.032;2023-05-22T01:47:17;98279.50;;;13.68;54.35
40918;BME280;26644;50.248;19.032;2023-05-22T01:50:38;98289.72;;;13.68;54.36
40918;BME280;26644;50.248;19.032;2023-05-22T01:54:04;98287.56;;;13.65;54.71
40918;BME280;26644;50.248;19.032;2023-05-22T01:57:33;98289.31;;;13.60;54.81
40918;BME280;26644;50.248;19.032;2023-05-22T02:01:01;98280.31;;;13.55;54.97
40918;BME280;26644;50.248;19.032;2023-05-22T02:04:27;98278.84;;;13.43;55.58
40918;BME280;26644;50.248;19.032;2023-05-22T02:07:49;98274.63;;;13.32;55.84
40918;BME280;26644;50.248;19.032;2023-05-22T02:11:12;98269.56;;;13.20;56.22
40918;BME280;26644;50.248;19.032;2023-05-22T02:14:35;98283.63;;;13.19;56.26
40918;BME280;26644;50.248;19.032;2023-05-22T02:17:58;98276.47;;;13.18;56.53
40918;BME280;26644;50.248;19.032;2023-05-22T02:21:21;98277.97;;;13.10;56.68
40918;BME280;26644;50.248;19.032;2023-05-22T02:24:44;98269.19;;;13.08;57.17
40918;BME280;26644;50.248;19.032;2023-05-22T02:28:06;98267.91;;;13.00;57.16
40918;BME280;26644;50.248;19.032;2023-05-22T02:31:26;98269.94;;;12.94;57.17
40918;BME280;26644;50.248;19.032;2023-05-22T02:34:46;98271.28;;;12.97;57.25
40918;BME280;26644;50.248;19.032;2023-05-22T02:38:08;98271.91;;;12.94;57.37
40918;BME280;26644;50.248;19.032;2023-05-22T02:41:27;98256.84;;;12.86;57.61
40918;BME280;26644;50.248;19.032;2023-05-22T02:44:47;98259.06;;;12.84;57.74
40918;BME280;26644;50.248;19.032;2023-05-22T02:48:07;98265.66;;;12.88;57.63
40918;BME280;26644;50.248;19.032;2023-05-22T02:51:26;98267.34;;;12.84;57.80
40918;BME280;26644;50.248;19.032;2023-05-22T02:54:48;98265.50;;;12.80;57.91
40918;BME280;26644;50.248;19.032;2023-05-22T02:58:10;98268.84;;;12.76;57.99
40918;BME280;26644;50.248;19.032;2023-05-22T03:01:29;98272.41;;;12.77;58.01
40918;BME280;26644;50.248;19.032;2023-05-22T03:04:38;98271.38;;;12.73;58.02
40918;BME280;26644;50.248;19.032;2023-05-22T03:07:43;98269.72;;;12.72;58.19
40918;BME280;26644;50.248;19.032;2023-05-22T03:10:52;98268.31;;;12.74;57.94
40918;BME280;26644;50.248;19.032;2023-05-22T03:13:57;98263.91;;;12.73;57.95
40918;BME280;26644;50.248;19.032;2023-05-22T03:17:02;98273.75;;;12.80;57.61
40918;BME280;26644;50.248;19.032;2023-05-22T03:20:08;98280.00;;;12.85;57.85
40918;BME280;26644;50.248;19.032;2023-05-22T03:23:17;98271.97;;;12.89;57.72
40918;BME280;26644;50.248;19.032;2023-05-22T03:26:28;98266.38;;;12.94;57.57
40918;BME280;26644;50.248;19.032;2023-05-22T03:29:34;98267.72;;;12.97;57.22
40918;BME280;26644;50.248;19.032;2023-05-22T03:32:39;98265.69;;;13.02;57.13
40918;BME280;26644;50.248;19.032;2023-05-22T03:35:44;98268.97;;;13.04;56.74
40918;BME280;26644;50.248;19.032;2023-05-22T03:38:48;98260.34;;;13.11;56.58
40918;BME280;26644;50.248;19.032;2023-05-22T03:41:56;98257.09;;;13.23;56.34
40918;BME280;26644;50.248;19.032;2023-05-22T03:45:01;98260.31;;;13.30;55.93
40918;BME280;26644;50.248;19.032;2023-05-22T03:48:07;98263.22;;;13.39;55.68
40918;BME280;26644;50.248;19.032;2023-05-22T03:51:12;98284.50;;;13.66;55.32
40918;BME280;26644;50.248;19.032;2023-05-22T03:54:18;98284.44;;;13.99;54.74
40918;BME280;26644;50.248;19.032;2023-05-22T03:57:25;98278.19;;;14.35;53.23
40918;BME280;26644;50.248;19.032;2023-05-22T04:00:31;98285.13;;;14.74;52.36
40918;BME280;26644;50.248;19.032;2023-05-22T04:03:36;98291.53;;;15.20;51.30
40918;BME280;26644;50.248;19.032;2023-05-22T04:06:41;98282.63;;;15.69;49.86
40918;BME280;26644;50.248;19.032;2023-05-22T04:09:47;98286.56;;;16.17;48.68
40918;BME280;26644;50.248;19.032;2023-05-22T04:13:09;98295.88;;;16.61;47.21
40918;BME280;26644;50.248;19.032;2023-05-22T04:16:29;98293.63;;;17.07;46.30
40918;BME280;26644;50.248;19.032;2023-05-22T04:19:49;98278.41;;;17.48;45.16
40918;BME280;26644;50.248;19.032;2023-05-22T04:23:09;98286.31;;;17.93;44.36
40918;BME280;26644;50.248;19.032;2023-05-22T04:26:28;98292.13;;;18.18;43.22
40918;BME280;26644;50.248;19.032;2023-05-22T04:29:50;98283.56;;;18.32;42.95
40918;BME280;26644;50.248;19.032;2023-05-22T04:33:10;98284.91;;;18.56;42.42
40918;BME280;26644;50.248;19.032;2023-05-22T04:36:17;98282.84;;;18.74;41.72
40918;BME280;26644;50.248;19.032;2023-05-22T04:39:24;98292.28;;;18.82;41.51
40918;BME280;26644;50.248;19.032;2023-05-22T04:42:29;98286.44;;;19.17;41.37
40918;BME280;26644;50.248;19.032;2023-05-22T04:45:37;98285.88;;;19.32;40.90
40918;BME280;26644;50.248;19.032;2023-05-22T04:48:43;98286.91;;;19.61;40.38
40918;BME280;26644;50.248;19.032;2023-05-22T04:51:47;98295.53;;;19.81;39.99
40918;BME280;26644;50.248;19.032;2023-05-22T04:54:53;98288.69;;;19.78;39.41
40918;BME280;26644;50.248;19.032;2023-05-22T04:57:57;98293.91;;;19.80;39.70
40918;BME280;26644;50.248;19.032;2023-05-22T05:01:06;98298.16;;;20.10;39.26
40918;BME280;26644;50.248;19.032;2023-05-22T05:04:11;98291.00;;;20.47;39.31
40918;BME280;26644;50.248;19.032;2023-05-22T05:07:17;98289.09;;;20.75;38.19
40918;BME280;26644;50.248;19.032;2023-05-22T05:10:39;98297.13;;;21.02;37.84
40918;BME280;26644;50.248;19.032;2023-05-22T05:13:58;98290.88;;;21.33;36.90
40918;BME280;26644;50.248;19.032;2023-05-22T05:17:21;98296.19;;;21.67;36.65
40918;BME280;26644;50.248;19.032;2023-05-22T05:20:40;98300.22;;;22.30;35.99
40918;BME280;26644;50.248;19.032;2023-05-22T05:24:00;98291.72;;;22.74;34.88
40918;BME280;26644;50.248;19.032;2023-05-22T05:27:19;98300.16;;;22.94;34.13
40918;BME280;26644;50.248;19.032;2023-05-22T05:30:39;98308.56;;;23.13;34.74
40918;BME280;26644;50.248;19.032;2023-05-22T05:34:08;98313.34;;;23.48;34.10
40918;BME280;26644;50.248;19.032;2023-05-22T05:37:42;98306.88;;;23.44;33.65
40918;BME280;26644;50.248;19.032;2023-05-22T05:41:02;98309.50;;;23.56;34.04
40918;BME280;26644;50.248;19.032;2023-05-22T05:44:22;98301.09;;;23.56;33.75
40918;BME280;26644;50.248;19.032;2023-05-22T05:47:28;98308.75;;;23.60;33.57
40918;BME280;26644;50.248;19.032;2023-05-22T05:50:37;98298.59;;;23.71;33.90
40918;BME280;26644;50.248;19.032;2023-05-22T05:53:44;98302.50;;;24.09;33.04
40918;BME280;26644;50.248;19.032;2023-05-22T05:56:49;98300.00;;;24.27;31.96
40918;BME280;26644;50.248;19.032;2023-05-22T05:59:55;98302.75;;;24.47;32.42
40918;BME280;26644;50.248;19.032;2023-05-22T06:03:17;98288.09;;;24.84;31.85
40918;BME280;26644;50.248;19.032;2023-05-22T06:06:56;98304.94;;;25.41;30.48
40918;BME280;26644;50.248;19.032;2023-05-22T06:10:26;98297.25;;;25.72;30.84
40918;BME280;26644;50.248;19.032;2023-05-22T06:14:05;98301.56;;;25.62;30.07
40918;BME280;26644;50.248;19.032;2023-05-22T06:17:26;98304.47;;;25.69;29.73
40918;BME280;26644;50.248;19.032;2023-05-22T06:20:45;98297.25;;;25.72;29.83
40918;BME280;26644;50.248;19.032;2023-05-22T06:23:53;98296.63;;;25.86;30.06
40918;BME280;26644;50.248;19.032;2023-05-22T06:26:59;98290.47;;;26.14;29.54
40918;BME280;26644;50.248;19.032;2023-05-22T06:30:07;98290.78;;;26.50;28.62
40918;BME280;26644;50.248;19.032;2023-05-22T06:33:14;98283.84;;;26.89;28.45
40918;BME280;26644;50.248;19.032;2023-05-22T06:36:20;98291.78;;;27.50;27.82
40918;BME280;26644;50.248;19.032;2023-05-22T06:39:29;98296.34;;;27.83;26.94
40918;BME280;26644;50.248;19.032;2023-05-22T06:42:57;98300.06;;;28.34;26.22
40918;BME280;26644;50.248;19.032;2023-05-22T06:46:02;98293.63;;;28.55;25.67
40918;BME280;26644;50.248;19.032;2023-05-22T06:49:19;98304.09;;;28.73;24.94
40918;BME280;26644;50.248;19.032;2023-05-22T06:52:26;98293.59;;;28.45;25.19
40918;BME280;26644;50.248;19.032;2023-05-22T06:55:35;98302.50;;;28.47;25.11
40918;BME280;26644;50.248;19.032;2023-05-22T06:59:02;98295.63;;;28.41;25.39
40918;BME280;26644;50.248;19.032;2023-05-22T07:02:44;98294.41;;;28.92;25.60
40918;BME280;26644;50.248;19.032;2023-05-22T07:06:23;98296.81;;;29.08;24.60
40918;BME280;26644;50.248;19.032;2023-05-22T07:09:42;98289.91;;;29.09;24.29
40918;BME280;26644;50.248;19.032;2023-05-22T07:13:04;98292.22;;;29.47;24.23
40918;BME280;26644;50.248;19.032;2023-05-22T07:16:24;98286.16;;;29.48;23.53
40918;BME280;26644;50.248;19.032;2023-05-22T07:19:45;98300.47;;;29.94;23.07
40918;BME280;26644;50.248;19.032;2023-05-22T07:22:50;98291.56;;;29.95;22.62
40918;BME280;26644;50.248;19.032;2023-05-22T07:25:56;98295.38;;;29.70;22.48
40918;BME280;26644;50.248;19.032;2023-05-22T07:29:10;98282.72;;;28.83;22.93
40918;BME280;26644;50.248;19.032;2023-05-22T07:32:16;98296.06;;;28.64;23.64
40918;BME280;26644;50.248;19.032;2023-05-22T07:35:22;98291.59;;;28.38;24.57
40918;BME280;26644;50.248;19.032;2023-05-22T07:38:27;98289.97;;;28.33;24.20
40918;BME280;26644;50.248;19.032;2023-05-22T07:41:50;98284.16;;;27.50;24.37
40918;BME280;26644;50.248;19.032;2023-05-22T07:45:14;98274.88;;;27.46;25.62
40918;BME280;26644;50.248;19.032;2023-05-22T07:48:34;98284.56;;;27.52;25.38
40918;BME280;26644;50.248;19.032;2023-05-22T07:51:39;98280.56;;;27.57;24.93
40918;BME280;26644;50.248;19.032;2023-05-22T07:54:45;98283.91;;;28.24;24.20
40918;BME280;26644;50.248;19.032;2023-05-22T07:57:52;98289.97;;;28.73;22.87
40918;BME280;26644;50.248;19.032;2023-05-22T08:01:07;98287.56;;;28.61;22.67
40918;BME280;26644;50.248;19.032;2023-05-22T08:04:13;98288.34;;;28.94;22.39
40918;BME280;26644;50.248;19.032;2023-05-22T08:07:18;98275.81;;;28.84;21.84
40918;BME280;26644;50.248;19.032;2023-05-22T08:10:23;98294.78;;;28.98;22.14
40918;BME280;26644;50.248;19.032;2023-05-22T08:13:28;98294.00;;;28.79;21.71
40918;BME280;26644;50.248;19.032;2023-05-22T08:16:35;98283.53;;;28.76;22.26
40918;BME280;26644;50.248;19.032;2023-05-22T08:19:40;98287.47;;;29.26;22.01
40918;BME280;26644;50.248;19.032;2023-05-22T08:22:45;98274.97;;;29.16;21.88
40918;BME280;26644;50.248;19.032;2023-05-22T08:25:49;98293.44;;;29.46;21.85
40918;BME280;26644;50.248;19.032;2023-05-22T08:28:55;98288.13;;;29.62;20.67
40918;BME280;26644;50.248;19.032;2023-05-22T08:32:02;98281.69;;;29.54;21.51
40918;BME280;26644;50.248;19.032;2023-05-22T08:35:08;98277.19;;;29.61;20.88
40918;BME280;26644;50.248;19.032;2023-05-22T08:38:14;98294.53;;;29.70;21.13
40918;BME280;26644;50.248;19.032;2023-05-22T08:41:19;98279.56;;;29.77;21.11
40918;BME280;26644;50.248;19.032;2023-05-22T08:44:24;98287.28;;;29.69;20.88
40918;BME280;26644;50.248;19.032;2023-05-22T08:47:33;98267.72;;;29.00;20.84
40918;BME280;26644;50.248;19.032;2023-05-22T08:50:57;98266.97;;;28.82;21.56
40918;BME280;26644;50.248;19.032;2023-05-22T08:54:07;98279.13;;;28.53;21.36
40918;BME280;26644;50.248;19.032;2023-05-22T08:57:12;98266.63;;;28.47;21.33
40918;BME280;26644;50.248;19.032;2023-05-22T09:00:20;98265.75;;;28.76;21.06
40918;BME280;26644;50.248;19.032;2023-05-22T09:03:29;98263.38;;;28.56;21.03
40918;BME280;26644;50.248;19.032;2023-05-22T09:06:35;98252.47;;;27.86;21.70
40918;BME280;26644;50.248;19.032;2023-05-22T09:09:45;98247.13;;;27.59;22.91
40918;BME280;26644;50.248;19.032;2023-05-22T09:12:59;98245.06;;;27.42;22.49
40918;BME280;26644;50.248;19.032;2023-05-22T09:16:07;98247.09;;;27.41;22.98
40918;BME280;26644;50.248;19.032;2023-05-22T09:19:16;98233.00;;;27.45;22.54
40918;BME280;26644;50.248;19.032;2023-05-22T09:22:21;98249.19;;;27.80;22.36
40918;BME280;26644;50.248;19.032;2023-05-22T09:25:27;98245.63;;;28.05;22.54
40918;BME280;26644;50.248;19.032;2023-05-22T09:28:32;98248.84;;;28.36;22.42
40918;BME280;26644;50.248;19.032;2023-05-22T09:31:42;98252.50;;;28.51;21.74
40918;BME280;26644;50.248;19.032;2023-05-22T09:35:08;98255.28;;;28.44;21.82
40918;BME280;26644;50.248;19.032;2023-05-22T09:38:14;98235.94;;;28.60;22.11
40918;BME280;26644;50.248;19.032;2023-05-22T09:41:20;98251.69;;;28.47;21.63
40918;BME280;26644;50.248;19.032;2023-05-22T09:44:25;98244.81;;;28.26;21.74
40918;BME280;26644;50.248;19.032;2023-05-22T09:47:30;98237.56;;;28.47;22.01
40918;BME280;26644;50.248;19.032;2023-05-22T09:50:39;98244.81;;;28.62;22.35
40918;BME280;26644;50.248;19.032;2023-05-22T09:53:47;98247.63;;;28.41;21.74
40918;BME280;26644;50.248;19.032;2023-05-22T09:56:57;98239.19;;;28.44;22.10
40918;BME280;26644;50.248;19.032;2023-05-22T10:00:05;98239.97;;;28.70;22.41
40918;BME280;26644;50.248;19.032;2023-05-22T10:03:22;98231.50;;;28.41;22.22
40918;BME280;26644;50.248;19.032;2023-05-22T10:06:31;98230.72;;;28.15;22.58
40918;BME280;26644;50.248;19.032;2023-05-22T10:09:58;98236.34;;;28.15;22.75
40918;BME280;26644;50.248;19.032;2023-05-22T10:13:10;98227.91;;;28.15;22.37
40918;BME280;26644;50.248;19.032;2023-05-22T10:16:15;98224.66;;;28.28;23.04
40918;BME280;26644;50.248;19.032;2023-05-22T10:19:21;98206.53;;;28.32;22.56
40918;BME280;26644;50.248;19.032;2023-05-22T10:22:33;98214.97;;;28.29;22.53
40918;BME280;26644;50.248;19.032;2023-05-22T10:25:40;98222.25;;;28.26;22.98
40918;BME280;26644;50.248;19.032;2023-05-22T10:28:54;98219.78;;;27.85;23.34
40918;BME280;26644;50.248;19.032;2023-05-22T10:32:12;98218.56;;;27.82;23.78
40918;BME280;26644;50.248;19.032;2023-05-22T10:35:37;98220.16;;;27.58;23.69
40918;BME280;26644;50.248;19.032;2023-05-22T10:39:05;98205.84;;;27.04;23.82
40918;BME280;26644;50.248;19.032;2023-05-22T10:42:28;98208.16;;;26.80;24.61
40918;BME280;26644;50.248;19.032;2023-05-22T10:45:34;98205.59;;;26.61;24.98
40918;BME280;26644;50.248;19.032;2023-05-22T10:48:43;98210.16;;;26.20;25.93
40918;BME280;26644;50.248;19.032;2023-05-22T10:51:54;98200.66;;;25.50;26.69
40918;BME280;26644;50.248;19.032;2023-05-22T10:55:05;98201.78;;;25.07;26.98
40918;BME280;26644;50.248;19.032;2023-05-22T10:58:12;98193.06;;;24.86;26.99
40918;BME280;26644;50.248;19.032;2023-05-22T11:01:18;98197.38;;;24.49;28.18
40918;BME280;26644;50.248;19.032;2023-05-22T11:04:29;98187.72;;;24.20;28.50
40918;BME280;26644;50.248;19.032;2023-05-22T11:07:39;98188.97;;;23.99;28.66
40918;BME280;26644;50.248;19.032;2023-05-22T11:10:55;98196.81;;;23.67;29.55
40918;BME280;26644;50.248;19.032;2023-05-22T11:14:03;98196.38;;;23.22;30.07
40918;BME280;26644;50.248;19.032;2023-05-22T11:17:11;98197.31;;;23.10;30.45
40918;BME280;26644;50.248;19.032;2023-05-22T11:20:20;98185.28;;;23.09;30.59
40918;BME280;26644;50.248;19.032;2023-05-22T11:23:33;98184.19;;;23.14;30.95
40918;BME280;26644;50.248;19.032;2023-05-22T11:26:43;98169.75;;;23.12;30.95
40918;BME280;26644;50.248;19.032;2023-05-22T11:30:06;98175.59;;;22.84;30.87
40918;BME280;26644;50.248;19.032;2023-05-22T11:33:12;98161.09;;;22.78;30.95
40918;BME280;26644;50.248;19.032;2023-05-22T11:36:19;98161.81;;;22.95;31.21
40918;BME280;26644;50.248;19.032;2023-05-22T11:39:23;98177.91;;;22.98;30.59
40918;BME280;26644;50.248;19.032;2023-05-22T11:42:31;98170.38;;;22.82;30.99
40918;BME280;26644;50.248;19.032;2023-05-22T11:45:38;98172.34;;;22.82;31.67
40918;BME280;26644;50.248;19.032;2023-05-22T11:48:43;98171.53;;;22.62;31.47
40918;BME280;26644;50.248;19.032;2023-05-22T11:51:48;98157.47;;;22.58;31.40
40918;BME280;26644;50.248;19.032;2023-05-22T11:54:53;98169.13;;;22.44;31.14
40918;BME280;26644;50.248;19.032;2023-05-22T11:58:00;98162.56;;;22.36;31.92
40918;BME280;26644;50.248;19.032;2023-05-22T12:01:06;98167.25;;;22.32;31.15
40918;BME280;26644;50.248;19.032;2023-05-22T12:04:10;98170.78;;;22.29;31.16
40918;BME280;26644;50.248;19.032;2023-05-22T12:07:16;98182.78;;;22.30;31.46
40918;BME280;26644;50.248;19.032;2023-05-22T12:10:21;98174.56;;;22.37;31.62
40918;BME280;26644;50.248;19.032;2023-05-22T12:13:31;98169.34;;;22.35;31.66
40918;BME280;26644;50.248;19.032;2023-05-22T12:16:36;98172.66;;;22.41;31.56
40918;BME280;26644;50.248;19.032;2023-05-22T12:19:42;98176.16;;;22.38;31.34
40918;BME280;26644;50.248;19.032;2023-05-22T12:22:48;98168.88;;;22.49;31.80
40918;BME280;26644;50.248;19.032;2023-05-22T12:25:57;98159.44;;;22.57;31.80
40918;BME280;26644;50.248;19.032;2023-05-22T12:29:06;98160.13;;;22.70;31.34
40918;BME280;26644;50.248;19.032;2023-05-22T12:32:12;98161.97;;;22.63;30.82
40918;BME280;26644;50.248;19.032;2023-05-22T12:35:18;98147.75;;;22.71;30.42
40918;BME280;26644;50.248;19.032;2023-05-22T12:38:24;98133.19;;;22.62;30.14
40918;BME280;26644;50.248;19.032;2023-05-22T12:41:29;98135.16;;;22.81;30.63
40918;BME280;26644;50.248;19.032;2023-05-22T12:44:37;98126.94;;;22.69;30.79
40918;BME280;26644;50.248;19.032;2023-05-22T12:47:42;98143.91;;;22.60;31.07
40918;BME280;26644;50.248;19.032;2023-05-22T12:50:48;98143.63;;;22.65;31.25
40918;BME280;26644;50.248;19.032;2023-05-22T12:53:52;98138.78;;;22.62;31.21
40918;BME280;26644;50.248;19.032;2023-05-22T12:56:57;98141.78;;;22.73;31.65
40918;BME280;26644;50.248;19.032;2023-05-22T13:00:20;98143.44;;;22.74;30.93
40918;BME280;26644;50.248;19.032;2023-05-22T13:03:40;98145.03;;;22.75;31.21
40918;BME280;26644;50.248;19.032;2023-05-22T13:06:45;98126.84;;;22.65;30.81
40918;BME280;26644;50.248;19.032;2023-05-22T13:09:49;98137.28;;;22.68;31.07
40918;BME280;26644;50.248;19.032;2023-05-22T13:12:55;98122.78;;;22.63;30.79
40918;BME280;26644;50.248;19.032;2023-05-22T13:16:02;98121.34;;;22.69;31.48
40918;BME280;26644;50.248;19.032;2023-05-22T13:19:08;98125.59;;;22.63;31.49
40918;BME280;26644;50.248;19.032;2023-05-22T13:22:13;98116.69;;;22.57;31.89
40918;BME280;26644;50.248;19.032;2023-05-22T13:25:19;98116.41;;;22.62;31.98
40918;BME280;26644;50.248;19.032;2023-05-22T13:28:23;98124.63;;;22.74;31.63
40918;BME280;26644;50.248;19.032;2023-05-22T13:31:31;98116.69;;;22.57;30.47
40918;BME280;26644;50.248;19.032;2023-05-22T13:34:38;98119.22;;;22.46;30.83
40918;BME280;26644;50.248;19.032;2023-05-22T13:37:44;98117.59;;;22.45;30.96
40918;BME280;26644;50.248;19.032;2023-05-22T13:40:48;98110.38;;;22.44;31.34
40918;BME280;26644;50.248;19.032;2023-05-22T13:43:54;98124.59;;;22.35;31.72
40918;BME280;26644;50.248;19.032;2023-05-22T13:47:01;98116.84;;;22.29;31.14
40918;BME280;26644;50.248;19.032;2023-05-22T13:50:07;98107.28;;;22.30;31.77
40918;BME280;26644;50.248;19.032;2023-05-22T13:53:12;98109.09;;;22.22;32.41
40918;BME280;26644;50.248;19.032;2023-05-22T13:56:17;98092.31;;;22.22;32.54
40918;BME280;26644;50.248;19.032;2023-05-22T13:59:22;98093.53;;;22.21;32.65
40918;BME280;26644;50.248;19.032;2023-05-22T14:02:30;98096.22;;;22.17;32.67
40918;BME280;26644;50.248;19.032;2023-05-22T14:05:34;98090.84;;;22.08;32.77
40918;BME280;26644;50.248;19.032;2023-05-22T14:08:40;98094.47;;;22.09;32.43
40918;BME280;26644;50.248;19.032;2023-05-22T14:11:44;98079.66;;;22.08;32.75
40918;BME280;26644;50.248;19.032;2023-05-22T14:14:50;98075.44;;;21.99;32.44
40918;BME280;26644;50.248;19.032;2023-05-22T14:17:57;98079.03;;;21.99;32.57
40918;BME280;26644;50.248;19.032;2023-05-22T14:21:02;98077.13;;;22.03;32.75
40918;BME280;26644;50.248;19.032;2023-05-22T14:24:07;98073.63;;;22.06;32.29
40918;BME280;26644;50.248;19.032;2023-05-22T14:27:12;98070.47;;;22.08;32.00
40918;BME280;26644;50.248;19.032;2023-05-22T14:30:17;98069.66;;;22.07;32.14
40918;BME280;26644;50.248;19.032;2023-05-22T14:33:25;98073.19;;;22.04;31.81
40918;BME280;26644;50.248;19.032;2023-05-22T14:36:29;98063.25;;;22.07;31.51
40918;BME280;26644;50.248;19.032;2023-05-22T14:39:34;98062.97;;;22.12;32.27
40918;BME280;26644;50.248;19.032;2023-05-22T14:42:54;98063.00;;;21.96;32.14
40918;BME280;26644;50.248;19.032;2023-05-22T14:45:59;98064.56;;;21.94;32.52
40918;BME280;26644;50.248;19.032;2023-05-22T14:49:06;98054.53;;;21.92;33.22
40918;BME280;26644;50.248;19.032;2023-05-22T14:52:11;98061.53;;;21.83;33.14
40918;BME280;26644;50.248;19.032;2023-05-22T14:55:16;98057.91;;;21.82;33.17
40918;BME280;26644;50.248;19.032;2023-05-22T14:58:22;98041.13;;;21.82;32.86
40918;BME280;26644;50.248;19.032;2023-05-22T15:01:26;98044.22;;;21.77;32.29
40918;BME280;26644;50.248;19.032;2023-05-22T15:04:34;98046.28;;;21.80;32.91
40918;BME280;26644;50.248;19.032;2023-05-22T15:07:39;98048.06;;;21.88;33.22
40918;BME280;26644;50.248;19.032;2023-05-22T15:10:44;98051.69;;;21.89;33.12
40918;BME280;26644;50.248;19.032;2023-05-22T15:13:49;98048.16;;;21.92;33.06
40918;BME280;26644;50.248;19.032;2023-05-22T15:16:57;98047.53;;;21.83;33.33
40918;BME280;26644;50.248;19.032;2023-05-22T15:20:06;98042.25;;;21.78;33.41
40918;BME280;26644;50.248;19.032;2023-05-22T15:23:11;98028.88;;;21.71;33.52
40918;BME280;26644;50.248;19.032;2023-05-22T15:26:16;98036.81;;;21.69;33.87
40918;BME280;26644;50.248;19.032;2023-05-22T15:29:22;98037.38;;;21.74;33.57
40918;BME280;26644;50.248;19.032;2023-05-22T15:32:26;98032.84;;;21.70;33.55
40918;BME280;26644;50.248;19.032;2023-05-22T15:35:34;98032.69;;;21.79;33.60
40918;BME280;26644;50.248;19.032;2023-05-22T15:38:38;98026.28;;;21.78;33.71
40918;BME280;26644;50.248;19.032;2023-05-22T15:41:44;98032.09;;;21.73;33.06
40918;BME280;26644;50.248;19.032;2023-05-22T15:44:48;98029.81;;;21.75;33.21
40918;BME280;26644;50.248;19.032;2023-05-22T15:47:53;98031.16;;;21.81;33.62
40918;BME280;26644;50.248;19.032;2023-05-22T15:51:00;98033.94;;;21.81;33.35
40918;BME280;26644;50.248;19.032;2023-05-22T15:54:07;98029.25;;;21.85;33.61
40918;BME280;26644;50.248;19.032;2023-05-22T15:57:11;98024.22;;;21.75;33.84
40918;BME280;26644;50.248;19.032;2023-05-22T16:00:17;98022.69;;;21.62;33.95
40918;BME280;26644;50.248;19.032;2023-05-22T16:03:22;98028.00;;;21.67;33.93
40918;BME280;26644;50.248;19.032;2023-05-22T16:06:30;98026.66;;;21.61;33.96
40918;BME280;26644;50.248;19.032;2023-05-22T16:09:35;98006.75;;;21.46;33.57
40918;BME280;26644;50.248;19.032;2023-05-22T16:12:40;98010.00;;;21.48;34.01
40918;BME280;26644;50.248;19.032;2023-05-22T16:16:00;97994.50;;;21.51;34.09
40918;BME280;26644;50.248;19.032;2023-05-22T16:19:20;98003.41;;;21.56;34.19
40918;BME280;26644;50.248;19.032;2023-05-22T16:22:43;98009.97;;;21.64;34.36
40918;BME280;26644;50.248;19.032;2023-05-22T16:26:02;98009.75;;;21.73;34.68
40918;BME280;26644;50.248;19.032;2023-05-22T16:29:22;98010.78;;;21.65;34.26
40918;BME280;26644;50.248;19.032;2023-05-22T16:32:41;98010.34;;;21.63;34.41
40918;BME280;26644;50.248;19.032;2023-05-22T16:36:02;97998.28;;;21.58;34.28
40918;BME280;26644;50.248;19.032;2023-05-22T16:39:10;98000.47;;;21.49;34.67
40918;BME280;26644;50.248;19.032;2023-05-22T16:42:15;98008.13;;;21.52;34.95
40918;BME280;26644;50.248;19.032;2023-05-22T16:45:21;98011.09;;;21.43;35.23